Gibson, IA

12:54 PM CDT on July 28, 2014 (GMT -0500)
Dietze Weather Station (KIAMILLE3) Elev 883 ft | 41.57 °N, 92.16 °W | Change Station

Current weather conditions updated 1 second ago

Mostly Cloudy
Mostly Cloudy
73.6 °F
Feels Like 76 °F
N
1.1
Wind Variable Wind from NNW
Gusts 1.1 mph

Today is forecast to be Cooler than yesterday.

Today
High -- | Low -- °F
--% Chance of Precip.
Yesterday
High -- | Low -- °F
Precip. -- in
6:00 AM 8:30 PM
Waxing Crescent, 3% visible
Pressure 30.20 in
Visibility 10.0 miles
Clouds Scattered Clouds 3900 ft
Scattered Clouds 4600 ft
Mostly Cloudy 5000 ft
Heat Index 76 °F
Dew Point 62 °F
Humidity 66%
Rainfall 0.00 in
Snow Depth Not available.
UV 6 out of 12
Pollen 6.50 out of 12
Air Quality Not available.
Flu Activity Not available.
METAR KOOA 281735Z AUTO 35009KT 10SM SCT039 SCT046 BKN050 21/14 A3020 RMK AO2 T02110137

More Conditions Fewer Conditions

Pressure 30.20 in
Visibility 10.0 miles
Clouds Scattered Clouds 3900 ft
Scattered Clouds 4600 ft
Mostly Cloudy 5000 ft
Heat Index 76 °F
Dew Point 62 °F
Humidity 66%
Rainfall 0.00 in
Snow Depth Not available.
UV 6 out of 12
Pollen 6.50 out of 12
Air Quality Not available.
Flu Activity Not available.
METAR KOOA 281735Z AUTO 35009KT 10SM SCT039 SCT046 BKN050 21/14 A3020 RMK AO2 T02110137

More Conditions Fewer Conditions

10-Day Weather Forecast

Almanac

Astronomy

Jul. 28, 2014 Rise Set
Actual Time 6:00 AM CDT 8:30 PM CDT
Civil Twilight 5:28 AM CDT 9:02 PM CDT
Nautical Twilight 4:49 AM CDT 9:41 PM CDT
Astronomical Twilight 4:05 AM CDT 10:25 PM CDT
Moon 7:44 AM CDT 9:10 PM CDT
Length of Visible Light 15h 33m
Length of Day
14h 30m
Tomorrow will be 1m 59s shorter.
Waxing Crescent, 3% of the Moon is Illuminated
Today
Waxing Crescent
Aug 3
First Quarter
Aug 10
Full
Aug 17
Last Quarter
Aug 25
New

Today's Extremes

State Highs State Lows

Community

WunderPhotos

Upload Photos

1,738,425 photos uploaded!

Nearby

Snow Depth

Station Depth Elevation
No new snow has been reported.

Earthquake Activity

City Distance Mag. Time & Date
No recent earthquake activity has been reported nearby.
Minimum magnitude displayed is 2.5.

Coastal Water Temperatures

Place Temperature
No Stations Reporting

Nearby Weather Stations

Station Location Temp. Heat Index Dew Point Humidity Wind Precip. Elev Updated Type
Dietze Weather Station, Millersburg, IA 73.6 °F 76 °F 62 °F 66% NNW  at  1.1 mph 0.00 in / hr 883 ft 12:54 PM CDT Rapid Fire
Oskaloosa, IA 71.8 °F 77 °F 54 °F 53% North  at  0.0 mph 0.00 in / hr 846 ft 12:54 PM CDT Rapid Fire
Williamsburg, IA 74.5 °F 77 °F 46 °F 36% NNE  at  3.9 mph 0.00 in / hr 820 ft 12:54 PM CDT Rapid Fire

Show More Stations Show Fewer Stations